Milnesand, New Mexico
Current Conditions -  °F | °C
As of 11:58 PM on Tuesday 21 Oct 2014 (Local Time) from KCVS Reporting Station
Haze Haze  
Wind Chill: 58°   Ceiling: 3800
Heat Index: 58°   Visibility: 5mi
Dew Point: 56°   Wind: 5mph
Humidity: 95%   Direction: 220°SW
Pressure: 30.11"   Gusts: NA
Location:  33.64°N, 103.34°W
Report Text: KCVS 220558Z 22004KT 5SM BR R22/5500FT BKN038 14/14 A3011 RMK AO2A SLP155 T01440136 10150 20139 58002 $
Loading
Personal Weather Stations






























Interactive Weather Map
Tropical Storm Tracking
New forecast layout! Learn more

10-Day Weather Forecast

Advertisements
Track Severe Weather on mobile